Terminal Aerodrome Forecast
Issued by NWS

Home | Current Version | Previous Version | Text Only | Print | Product List | Glossary On
Versions: 1 2 3 4 5 6 7 8 9 10 11 12 13 14 15 16 17 18
000
FTUS46 KMFR 272326
TAFRBG
TAF
KRBG 272326Z 2800/2824 33006KT P6SM SKC
     FM280500 35004KT P6SM SCT015
     FM280900 36004KT P6SM OVC006
     FM281700 33005KT P6SM SCT015
     FM282100 36008KT 5SM -SHRA OVC025=

USA.gov is the U.S. government's official web portal to all federal, state and local government web resources and services.